Time;durP1;ratioP1;P1;durP2;ratioP2;P2;SDS_P1;SDS_P2;PMS_P1;PMS_P2;Temp;Humidity;BMP_temperature;BMP_pressure;BME280_temperature;BME280_humidity;BME280_pressure;Samples;Min_cycle;Max_cycle;Signal;HPM_P1;HPM_P2
2022/04/03 00:00:49;;;;;;;8.27;8.07;;;;;;;5.86;86.51;91706.53;5012148;28;20197;-73
2022/04/03 00:03:15;;;;;;;9.07;8.77;;;;;;;5.80;84.32;91707.56;5011325;28;20250;-73
2022/04/03 00:05:43;;;;;;;8.77;8.47;;;;;;;6.03;84.31;91692.13;5012166;28;20210;-73
2022/04/03 00:08:10;;;;;;;9.30;9.00;;;;;;;6.01;86.41;91701.97;5011154;28;20231;-74
2022/04/03 00:10:36;;;;;;;7.73;7.53;;;;;;;5.77;85.90;91695.16;5011642;28;20193;-73
2022/04/03 00:13:03;;;;;;;9.07;8.77;;;;;;;5.89;87.65;91687.84;5011322;28;20208;-73
2022/04/03 00:15:29;;;;;;;8.33;8.03;;;;;;;5.82;85.38;91682.22;5011788;28;20215;-73
2022/04/03 00:17:55;;;;;;;8.73;8.43;;;;;;;5.74;87.89;91670.59;5010760;28;20171;-74
2022/04/03 00:20:21;;;;;;;9.63;9.23;;;;;;;5.57;86.21;91675.38;5010041;28;20227;-73
2022/04/03 00:22:50;;;;;;;8.97;8.43;;;;;;;5.45;85.79;91656.09;5011560;28;20195;-74
2022/04/03 00:25:18;;;;;;;10.43;9.93;;;;;;;5.74;84.01;91672.41;5011695;28;20203;-74
2022/04/03 00:27:44;;;;;;;10.67;10.17;;;;;;;5.68;81.30;91657.97;5010315;28;20206;-74
2022/04/03 00:30:10;;;;;;;9.17;8.77;;;;;;;5.74;82.86;91680.19;5011627;28;20211;-73
2022/04/03 00:32:36;;;;;;;10.23;9.73;;;;;;;5.75;82.00;91668.78;5011548;28;20230;-74
2022/04/03 00:35:06;;;;;;;8.67;8.37;;;;;;;5.72;81.27;91644.22;5009868;28;20211;-74
2022/04/03 00:37:32;;;;;;;10.40;10.00;;;;;;;5.84;81.68;91654.22;5010377;28;20219;-73
2022/04/03 00:39:58;;;;;;;10.20;9.67;;;;;;;5.78;80.59;91642.31;5010828;28;20215;-74
2022/04/03 00:42:23;;;;;;;9.87;9.27;;;;;;;5.70;82.08;91641.09;5012166;28;20199;-74
2022/04/03 00:44:49;;;;;;;9.97;9.37;;;;;;;5.59;81.44;91636.28;5010947;28;20231;-73
2022/04/03 00:47:16;;;;;;;9.53;9.13;;;;;;;5.92;79.58;91671.75;5012272;28;20188;-73
2022/04/03 00:49:42;;;;;;;10.03;9.60;;;;;;;5.88;79.91;91670.78;5011123;28;20242;-73
2022/04/03 00:52:08;;;;;;;10.37;9.80;;;;;;;5.98;78.66;91675.84;5012256;28;20184;-73
2022/04/03 00:54:34;;;;;;;10.03;9.57;;;;;;;5.95;78.79;91676.38;5010750;28;20872;-73
2022/04/03 00:57:05;;;;;;;9.67;9.17;;;;;;;6.09;76.31;91674.69;5011354;28;20253;-73
2022/04/03 00:59:30;;;;;;;11.03;10.33;;;;;;;5.98;76.16;91665.47;5010981;28;20308;-74
2022/04/03 01:01:55;;;;;;;9.50;9.13;;;;;;;6.05;74.65;91664.13;5011593;28;20199;-73
2022/04/03 01:04:21;;;;;;;9.80;9.40;;;;;;;6.17;75.74;91679.28;5011208;28;20254;-73
2022/04/03 01:06:46;;;;;;;9.50;9.20;;;;;;;5.98;74.18;91647.34;5011148;28;20204;-73
2022/04/03 01:09:12;;;;;;;9.53;9.13;;;;;;;6.07;75.47;91656.84;5011057;28;20220;-73
2022/04/03 01:11:39;;;;;;;9.73;9.33;;;;;;;6.17;75.86;91656.75;5010802;28;20172;-74
2022/04/03 01:14:05;;;;;;;10.03;9.43;;;;;;;6.19;73.85;91675.41;5009505;28;20242;-74
2022/04/03 01:16:32;;;;;;;9.03;8.63;;;;;;;6.25;73.49;91676.13;5010883;28;20267;-73
2022/04/03 01:18:58;;;;;;;9.77;9.37;;;;;;;6.07;74.14;91659.44;5010498;28;20298;-74
2022/04/03 01:21:24;;;;;;;9.93;9.53;;;;;;;6.25;73.30;91686.47;5010749;28;20230;-73
2022/04/03 01:23:50;;;;;;;10.13;9.43;;;;;;;6.15;75.50;91678.78;5010991;28;20228;-74
2022/04/03 01:26:16;;;;;;;9.00;8.60;;;;;;;6.15;74.94;91678.78;5010270;28;20210;-73
2022/04/03 01:28:43;;;;;;;9.83;9.37;;;;;;;6.21;72.31;91677.72;5010449;28;20270;-73
2022/04/03 01:31:08;;;;;;;10.10;9.70;;;;;;;6.27;70.66;91684.41;5010618;28;20197;-73
2022/04/03 01:33:34;;;;;;;9.70;9.30;;;;;;;6.38;74.05;91686.59;5010076;28;20227;-73
2022/04/03 01:35:59;;;;;;;9.03;8.63;;;;;;;6.63;72.67;91687.38;5010682;28;20219;-74
2022/04/03 01:38:25;;;;;;;8.83;8.53;;;;;;;6.63;71.43;91697.75;5009880;28;20238;-73
2022/04/03 01:40:51;;;;;;;8.47;8.10;;;;;;;6.32;72.95;91699.88;5010628;28;20196;-73
2022/04/03 01:43:16;;;;;;;8.87;8.57;;;;;;;6.21;73.34;91694.00;5010243;28;20231;-74
2022/04/03 01:45:42;;;;;;;8.50;8.20;;;;;;;5.79;75.71;91703.44;5010630;28;20222;-72
2022/04/03 01:48:08;;;;;;;13.93;7.93;;;;;;;5.74;80.46;91711.25;5010274;28;20223;-73
2022/04/03 01:50:34;;;;;;;8.60;8.30;;;;;;;5.75;81.58;91692.84;5010529;28;20222;-73
2022/04/03 01:53:00;;;;;;;8.00;7.80;;;;;;;5.75;76.55;91715.38;5010640;28;20191;-74
2022/04/03 01:55:25;;;;;;;8.63;8.13;;;;;;;5.80;81.00;91690.22;5009741;28;20211;-73
2022/04/03 01:57:54;;;;;;;8.47;8.07;;;;;;;6.00;82.26;91687.50;5008827;28;20199;-73
2022/04/03 02:00:20;;;;;;;8.37;8.07;;;;;;;5.85;77.07;91681.69;5009984;28;20203;-73
2022/04/03 02:02:46;;;;;;;7.87;7.67;;;;;;;5.95;72.68;91681.56;5009764;28;20275;-74
2022/04/03 02:05:11;;;;;;;8.70;8.40;;;;;;;5.99;74.88;91677.41;5010483;28;20247;-73
2022/04/03 02:07:38;;;;;;;9.43;8.93;;;;;;;5.83;77.48;91676.00;5010150;28;20198;-74
2022/04/03 02:10:08;;;;;;;7.83;7.63;;;;;;;6.17;70.18;91671.53;5010242;28;20223;-72
2022/04/03 02:12:35;;;;;;;9.20;8.90;;;;;;;5.99;72.56;91680.00;5010248;28;20199;-73
2022/04/03 02:15:01;;;;;;;8.03;7.83;;;;;;;5.92;75.35;91676.94;5010312;28;21044;-73
2022/04/03 02:17:27;;;;;;;8.43;8.13;;;;;;;5.68;76.30;91665.75;5009908;28;20238;-73
2022/04/03 02:19:52;;;;;;;9.53;9.13;;;;;;;5.42;79.25;91654.00;5009809;28;20227;-73
2022/04/03 02:22:18;;;;;;;8.43;8.13;;;;;;;5.35;80.07;91656.16;5010196;28;20234;-73
2022/04/03 02:24:43;;;;;;;8.47;8.17;;;;;;;5.43;79.77;91661.50;5010243;28;20278;-73
2022/04/03 02:27:08;;;;;;;8.30;8.07;;;;;;;5.16;76.52;91650.06;5010259;28;20199;-73
2022/04/03 02:29:34;;;;;;;8.23;7.83;;;;;;;5.36;78.94;91662.84;5009995;28;20223;-73
2022/04/03 02:31:59;;;;;;;8.20;7.90;;;;;;;5.58;79.56;91645.88;5009766;28;20199;-72
2022/04/03 02:34:26;;;;;;;8.43;8.13;;;;;;;5.22;79.58;91677.44;5009537;28;20269;-72
2022/04/03 02:36:52;;;;;;;8.53;8.13;;;;;;;5.04;81.64;91659.97;5009930;28;20192;-72
2022/04/03 02:39:18;;;;;;;8.57;8.27;;;;;;;5.06;81.53;91678.59;5009601;28;20254;-71
2022/04/03 02:41:43;;;;;;;8.83;8.33;;;;;;;5.18;75.20;91677.22;5009535;28;20181;-72
2022/04/03 02:44:09;;;;;;;7.87;7.57;;;;;;;5.49;75.63;91688.91;5009276;28;20362;-72
2022/04/03 02:46:35;;;;;;;8.07;7.77;;;;;;;5.69;72.09;91677.63;5010542;28;20203;-73
2022/04/03 02:49:00;;;;;;;9.90;9.60;;;;;;;5.09;76.13;91673.63;5009139;28;20258;-72
2022/04/03 02:51:26;;;;;;;9.63;9.13;;;;;;;5.31;74.13;91670.69;5009786;28;21100;-71
2022/04/03 02:53:51;;;;;;;9.50;9.07;;;;;;;5.34;74.48;91676.06;5009123;28;20721;-72
2022/04/03 02:56:17;;;;;;;8.70;8.40;;;;;;;5.23;72.78;91682.34;5009569;28;20297;-72
2022/04/03 02:58:42;;;;;;;8.83;8.50;;;;;;;5.28;73.64;91702.25;5008634;28;20238;-71
2022/04/03 03:01:08;;;;;;;8.30;8.03;;;;;;;5.29;67.55;91693.44;5010010;28;20191;-71
2022/04/03 03:03:33;;;;;;;8.27;8.07;;;;;;;5.42;70.32;91679.88;5009154;28;20234;-71
2022/04/03 03:05:59;;;;;;;9.13;8.83;;;;;;;5.70;64.72;91689.50;5009644;28;20251;-72
2022/04/03 03:08:24;;;;;;;7.13;6.93;;;;;;;5.85;63.79;91679.84;5008261;28;20239;-71
2022/04/03 03:10:50;;;;;;;7.87;7.67;;;;;;;5.76;64.90;91685.88;5009904;28;20195;-72
2022/04/03 03:13:16;;;;;;;9.13;8.83;;;;;;;5.89;65.18;91688.63;5007920;28;20294;-72
2022/04/03 03:15:41;;;;;;;8.20;7.90;;;;;;;5.96;64.74;91688.31;5009259;28;20211;-71
2022/04/03 03:18:07;;;;;;;7.27;7.07;;;;;;;5.92;66.40;91695.06;5008711;28;20283;-72
2022/04/03 03:20:33;;;;;;;7.97;7.63;;;;;;;5.86;68.72;91698.75;5009769;28;20247;-72
2022/04/03 03:23:00;;;;;;;7.97;7.77;;;;;;;5.95;68.52;91694.53;5009227;28;20190;-71
2022/04/03 03:25:25;;;;;;;8.80;8.50;;;;;;;5.91;66.56;91691.72;5009553;28;20191;-72
2022/04/03 03:27:51;;;;;;;7.57;7.37;;;;;;;5.93;66.25;91681.09;5008977;28;20226;-72
2022/04/03 03:30:16;;;;;;;7.47;7.27;;;;;;;5.76;67.18;91689.22;5009379;28;20179;-72
2022/04/03 03:32:42;;;;;;;7.67;7.47;;;;;;;5.67;65.76;91677.91;5008579;28;20218;-73
2022/04/03 03:35:08;;;;;;;9.40;9.10;;;;;;;5.71;65.10;91681.47;5009233;28;20211;-73
2022/04/03 03:37:34;;;;;;;7.37;7.17;;;;;;;5.65;65.31;91681.81;5008916;28;20259;-72
2022/04/03 03:39:59;;;;;;;8.47;8.20;;;;;;;5.63;64.20;91671.72;5008553;28;20622;-71
2022/04/03 03:42:25;;;;;;;8.73;8.43;;;;;;;5.80;61.33;91669.50;5008987;28;20183;-72
2022/04/03 03:44:50;;;;;;;8.30;8.00;;;;;;;5.84;63.31;91677.53;5008617;28;20243;-72
2022/04/03 03:47:16;;;;;;;8.17;7.97;;;;;;;5.85;61.36;91687.59;5008923;28;20172;-71
2022/04/03 03:49:41;;;;;;;7.13;6.93;;;;;;;5.80;61.17;91699.81;5009083;28;20235;-72
2022/04/03 03:52:07;;;;;;;8.80;8.50;;;;;;;5.76;60.00;91676.25;5009254;28;20176;-73
2022/04/03 03:54:32;;;;;;;8.13;7.93;;;;;;;5.81;59.81;91701.34;5009644;28;20231;-72
2022/04/03 03:56:58;;;;;;;8.33;8.13;;;;;;;5.87;58.76;91710.66;5012684;28;20191;-72
2022/04/03 03:59:24;;;;;;;8.03;7.83;;;;;;;5.78;60.16;91715.63;5011209;28;20239;-72
2022/04/03 04:01:49;;;;;;;7.70;7.50;;;;;;;5.81;59.76;91722.06;5012599;28;20267;-72
2022/04/03 04:04:15;;;;;;;8.97;8.67;;;;;;;5.86;60.44;91722.06;5011922;28;20223;-72
2022/04/03 04:06:41;;;;;;;8.30;8.10;;;;;;;5.81;60.11;91724.66;5012583;28;20280;-72
2022/04/03 04:09:06;;;;;;;8.27;8.07;;;;;;;5.80;60.38;91733.47;5011781;28;20219;-72
2022/04/03 04:11:32;;;;;;;7.33;7.13;;;;;;;5.86;60.19;91740.19;5012365;28;20219;-73
2022/04/03 04:13:58;;;;;;;8.77;8.27;;;;;;;5.93;59.11;91745.84;5011738;28;20223;-73
2022/04/03 04:16:23;;;;;;;7.93;7.73;;;;;;;5.90;60.67;91748.97;5012322;28;20210;-72
2022/04/03 04:18:49;;;;;;;8.90;8.40;;;;;;;5.85;60.44;91754.94;5011608;28;20287;-73
2022/04/03 04:21:16;;;;;;;8.40;8.10;;;;;;;6.02;60.60;91751.97;5011839;28;20246;-73
2022/04/03 04:23:42;;;;;;;8.73;8.47;;;;;;;6.03;59.09;91758.69;5012167;28;20238;-71
2022/04/03 04:26:07;;;;;;;8.87;8.57;;;;;;;5.97;57.23;91754.59;5012123;28;20219;-72
2022/04/03 04:28:34;;;;;;;7.67;7.47;;;;;;;6.08;59.69;91771.63;5011883;28;20220;-71
2022/04/03 04:31:00;;;;;;;7.20;7.00;;;;;;;6.07;57.29;91783.03;5012188;28;20290;-72
2022/04/03 04:33:25;;;;;;;8.23;8.03;;;;;;;6.07;57.63;91783.03;5011450;28;20227;-72
2022/04/03 04:35:51;;;;;;;9.33;9.03;;;;;;;6.01;57.54;91773.72;5012180;28;20306;-73
2022/04/03 04:38:17;;;;;;;9.73;9.43;;;;;;;6.14;57.59;91786.84;5011469;28;20228;-71
2022/04/03 04:40:43;;;;;;;8.40;8.20;;;;;;;6.19;57.77;91786.03;5011903;28;20245;-71
2022/04/03 04:43:09;;;;;;;8.00;7.80;;;;;;;6.16;57.32;91786.59;5011348;28;20223;-72
2022/04/03 04:45:34;;;;;;;8.67;8.47;;;;;;;6.13;57.29;91781.94;5011799;28;20195;-72
2022/04/03 04:48:00;;;;;;;8.37;8.17;;;;;;;6.12;57.93;91768.22;5010874;28;20179;-72
2022/04/03 04:50:27;;;;;;;8.50;8.20;;;;;;;6.12;58.92;91790.75;5011785;28;20200;-72
2022/04/03 04:52:53;;;;;;;9.50;9.20;;;;;;;6.02;59.33;91793.44;5011041;28;20191;-73
2022/04/03 04:55:19;;;;;;;9.20;8.90;;;;;;;6.09;59.10;91799.06;5011781;28;20245;-72
2022/04/03 04:57:55;;;;;;;8.67;8.37;;;;;;;6.20;57.94;91793.53;5011527;28;20950;-71
2022/04/03 05:00:23;;;;;;;8.23;7.93;;;;;;;6.21;57.82;91809.88;5009166;28;20190;-72
2022/04/03 05:02:49;;;;;;;9.00;8.70;;;;;;;6.34;58.80;91810.00;5011126;28;20190;-72
2022/04/03 05:05:20;;;;;;;9.30;8.97;;;;;;;6.22;56.71;91801.03;5011205;28;20183;-72
2022/04/03 05:07:47;;;;;;;8.30;8.00;;;;;;;6.18;57.02;91794.84;5010656;28;20217;-72
2022/04/03 05:10:15;;;;;;;8.17;7.97;;;;;;;6.33;56.61;91820.66;5011038;28;20195;-72
2022/04/03 05:12:41;;;;;;;9.40;9.10;;;;;;;6.37;56.36;91819.06;5010422;28;20215;-73
2022/04/03 05:15:08;;;;;;;9.17;8.87;;;;;;;6.46;55.71;91814.81;5010680;28;20271;-72
2022/04/03 05:17:34;;;;;;;8.07;7.77;;;;;;;6.46;55.79;91818.19;5010875;28;20198;-72
2022/04/03 05:19:59;;;;;;;8.87;8.47;;;;;;;6.24;56.63;91830.06;5010727;28;20227;-72
2022/04/03 05:22:26;;;;;;;8.87;8.57;;;;;;;6.22;56.93;91812.19;5011205;28;20250;-71
2022/04/03 05:24:52;;;;;;;7.63;7.43;;;;;;;6.39;57.06;91827.34;5011149;28;20253;-73
2022/04/03 05:27:18;;;;;;;8.97;8.67;;;;;;;6.10;57.02;91829.13;5011453;28;20202;-72
2022/04/03 05:29:44;;;;;;;8.73;8.33;;;;;;;6.12;56.92;91817.44;5010781;28;20237;-72
2022/04/03 05:32:10;;;;;;;8.27;7.97;;;;;;;6.21;57.89;91838.38;5011370;28;20215;-72
2022/04/03 05:34:35;;;;;;;9.00;8.60;;;;;;;6.10;56.23;91842.09;5025776;28;20231;-73
2022/04/03 05:37:00;;;;;;;9.13;8.83;;;;;;;6.17;58.62;91842.53;5011015;28;20255;-72
2022/04/03 05:39:26;;;;;;;8.63;8.33;;;;;;;6.17;57.80;91845.13;5010739;28;20235;-72
2022/04/03 05:41:55;;;;;;;8.10;7.90;;;;;;;6.03;55.36;91831.22;5010568;28;20249;-72
2022/04/03 05:44:21;;;;;;;7.70;7.50;;;;;;;6.20;56.28;91837.59;5010801;28;20231;-72
2022/04/03 05:46:46;;;;;;;8.73;8.43;;;;;;;6.31;56.49;91825.31;5010822;28;20219;-73
2022/04/03 05:49:11;;;;;;;9.90;9.60;;;;;;;6.35;54.70;91821.16;5010202;28;20235;-72
2022/04/03 05:51:37;;;;;;;8.57;8.27;;;;;;;6.67;55.70;91849.13;5010804;28;20206;-73
2022/04/03 05:54:03;;;;;;;8.43;8.13;;;;;;;6.66;53.42;91840.59;5010403;28;20239;-72
2022/04/03 05:56:31;;;;;;;8.07;7.87;;;;;;;6.83;53.98;91853.94;5009681;28;20215;-72
2022/04/03 05:58:57;;;;;;;9.03;8.73;;;;;;;6.78;54.35;91853.97;4999139;28;20311;-71
2022/04/03 06:01:22;;;;;;;8.07;7.87;;;;;;;6.88;52.84;91861.63;4990856;28;20196;-71
2022/04/03 06:03:48;;;;;;;8.00;7.80;;;;;;;6.67;53.43;91847.31;4999449;28;20231;-72
2022/04/03 06:06:13;;;;;;;8.93;8.33;;;;;;;6.74;53.42;91855.53;5010372;28;20180;-72
2022/04/03 06:08:39;;;;;;;7.80;7.50;;;;;;;6.60;53.95;91857.22;5010008;28;20258;-71
2022/04/03 06:11:05;;;;;;;8.10;7.80;;;;;;;6.53;53.52;91859.38;5009278;28;20188;-70
2022/04/03 06:13:30;;;;;;;8.60;8.30;;;;;;;6.73;54.49;91869.56;5009816;28;20238;-73
2022/04/03 06:15:55;;;;;;;10.13;9.73;;;;;;;6.34;53.30;91856.66;5007745;28;20776;-71
2022/04/03 06:18:21;;;;;;;8.97;8.67;;;;;;;6.36;54.02;91851.22;5001018;28;20236;-72
2022/04/03 06:20:47;;;;;;;9.33;9.03;;;;;;;6.52;54.68;91883.75;4988986;28;20307;-74
2022/04/03 06:23:18;;;;;;;8.30;8.10;;;;;;;6.32;55.53;91876.88;4992840;28;20242;-76
2022/04/03 06:25:45;;;;;;;9.03;8.73;;;;;;;6.35;56.09;91883.38;5008899;28;20287;-73
2022/04/03 06:28:11;;;;;;;7.87;7.67;;;;;;;6.41;56.80;91888.22;5008099;28;20227;-76
2022/04/03 06:30:36;;;;;;;8.90;8.60;;;;;;;6.55;55.72;91896.19;5008949;28;20219;-72
2022/04/03 06:33:02;;;;;;;8.93;8.63;;;;;;;6.43;56.37;91880.19;5006690;28;20231;-77
2022/04/03 06:35:28;;;;;;;10.10;9.80;;;;;;;6.28;56.73;91873.31;5009273;28;20215;-76
2022/04/03 06:37:55;;;;;;;8.90;8.60;;;;;;;6.31;56.02;91895.31;5023486;28;20222;-73
2022/04/03 06:40:21;;;;;;;8.50;8.23;;;;;;;6.32;55.17;91905.41;5008390;28;20191;-73
2022/04/03 06:42:47;;;;;;;8.93;8.63;;;;;;;6.24;55.13;91877.47;5007505;28;20191;-71
2022/04/03 06:45:14;;;;;;;9.17;8.87;;;;;;;6.51;56.64;91903.72;5008395;28;20259;-74
2022/04/03 06:47:40;;;;;;;9.07;8.77;;;;;;;6.30;55.54;91881.56;5008129;28;20183;-70
2022/04/03 06:50:06;;;;;;;8.30;8.10;;;;;;;6.73;56.78;91916.25;5006024;28;20239;-72
2022/04/03 06:52:34;;;;;;;8.87;8.57;;;;;;;6.65;57.15;91914.22;5008578;28;20211;-75
2022/04/03 06:55:09;;;;;;;9.07;8.77;;;;;;;6.39;56.57;91899.91;5008208;28;20314;-73
2022/04/03 06:57:35;;;;;;;8.57;8.27;;;;;;;6.74;56.97;91922.97;5008164;28;20226;-73
2022/04/03 07:00:00;;;;;;;8.97;8.67;;;;;;;6.84;56.06;91916.94;5008199;28;20227;-73
2022/04/03 07:02:26;;;;;;;8.60;8.33;;;;;;;7.06;56.44;91928.44;5007532;28;20250;-72
2022/04/03 07:04:51;;;;;;;8.73;8.43;;;;;;;6.62;55.96;91914.78;5008702;28;20287;-71
2022/04/03 07:07:22;;;;;;;7.57;7.37;;;;;;;6.96;56.68;91943.31;5008254;28;20226;-71
2022/04/03 07:09:47;;;;;;;7.40;7.20;;;;;;;6.96;57.40;91909.59;5008251;28;20231;-72
2022/04/03 07:12:14;;;;;;;8.97;8.67;;;;;;;6.51;59.12;91952.19;5007219;28;20251;-72
2022/04/03 07:14:39;;;;;;;9.60;9.30;;;;;;;6.93;62.16;91949.81;5005685;28;20221;-72
2022/04/03 07:17:04;;;;;;;9.03;8.73;;;;;;;7.57;59.91;91937.25;5007058;28;20215;-72
2022/04/03 07:19:30;;;;;;;8.17;7.87;;;;;;;7.42;59.41;91970.41;5007345;28;20219;-72
2022/04/03 07:21:57;;;;;;;9.37;8.97;;;;;;;7.53;59.56;91972.59;5006861;28;20211;-73
2022/04/03 07:24:23;;;;;;;9.03;8.73;;;;;;;7.56;56.30;91979.09;5006064;28;20243;-71
2022/04/03 07:26:49;;;;;;;8.77;8.47;;;;;;;7.43;56.00;91964.94;5006018;28;20222;-72
2022/04/03 07:29:15;;;;;;;9.00;8.70;;;;;;;7.74;56.06;91989.56;5008676;28;20219;-73
2022/04/03 07:31:41;;;;;;;8.63;8.33;;;;;;;7.44;57.12;91973.50;5009026;28;20191;-73
2022/04/03 07:34:06;;;;;;;9.30;8.93;;;;;;;7.00;58.51;91959.88;5009308;28;20215;-72
2022/04/03 07:36:32;;;;;;;9.00;8.70;;;;;;;7.28;57.17;91992.88;5011231;28;20234;-72
2022/04/03 07:38:57;;;;;;;8.87;8.57;;;;;;;7.40;56.24;91968.09;5009656;28;20227;-72
2022/04/03 07:41:23;;;;;;;8.73;8.43;;;;;;;8.08;57.68;91985.00;5010761;28;20280;-73
2022/04/03 07:43:48;;;;;;;9.57;9.27;;;;;;;8.12;55.28;91985.97;5010463;28;20246;-72
2022/04/03 07:46:16;;;;;;;9.50;9.20;;;;;;;7.71;54.44;91981.53;5011551;28;20193;-74
2022/04/03 07:48:42;;;;;;;9.53;9.17;;;;;;;7.63;53.35;91995.91;5010589;28;20235;-72
2022/04/03 07:51:08;;;;;;;9.10;8.80;;;;;;;7.52;52.79;92002.22;5011482;28;20191;-72
2022/04/03 07:53:34;;;;;;;8.70;8.40;;;;;;;8.06;54.18;91997.50;5003442;28;20232;-72
2022/04/03 07:55:59;;;;;;;8.97;8.67;;;;;;;8.29;52.73;92010.78;4991979;28;20272;-77
2022/04/03 07:58:25;;;;;;;9.07;8.77;;;;;;;8.05;53.73;91979.59;4996756;28;20302;-73
2022/04/03 08:00:50;;;;;;;8.83;8.50;;;;;;;8.05;54.00;91995.19;5012507;28;20677;-74
2022/04/03 08:03:16;;;;;;;7.67;7.47;;;;;;;8.23;57.24;91983.31;5009594;28;20282;-73
2022/04/03 08:05:41;;;;;;;8.43;8.10;;;;;;;8.43;54.64;91957.81;5011755;28;20191;-72
2022/04/03 08:08:07;;;;;;;8.37;8.07;;;;;;;8.31;53.68;91969.69;5006925;28;20262;-72
2022/04/03 08:10:32;;;;;;;9.10;8.73;;;;;;;8.13;55.50;91977.16;4989712;28;20196;-71
2022/04/03 08:12:58;;;;;;;8.93;8.53;;;;;;;8.41;52.86;91977.34;4991843;28;20192;-72
2022/04/03 08:15:24;;;;;;;8.17;7.97;;;;;;;8.69;52.53;91979.03;4992174;28;20216;-72
2022/04/03 08:17:49;;;;;;;8.97;8.67;;;;;;;8.73;53.39;92006.06;4991783;28;20207;-73
2022/04/03 08:20:17;;;;;;;8.77;8.47;;;;;;;9.24;51.33;91980.81;5011751;28;20183;-73
2022/04/03 08:22:44;;;;;;;9.07;8.67;;;;;;;9.31;51.40;92013.25;5010479;28;20273;-74
2022/04/03 08:25:12;;;;;;;8.57;8.27;;;;;;;9.04;47.42;92017.59;5011800;28;20211;-72
2022/04/03 08:27:44;;;;;;;8.77;8.37;;;;;;;9.36;50.15;92015.78;5011349;28;20271;-73
2022/04/03 08:30:18;;;;;;;7.77;7.57;;;;;;;9.71;50.49;92022.22;4991145;28;20279;-75
2022/04/03 08:32:43;;;;;;;9.10;8.80;;;;;;;9.53;48.65;91987.34;4991013;28;20188;-76
2022/04/03 08:35:11;;;;;;;8.43;8.13;;;;;;;9.66;49.48;92030.13;5011363;28;20303;-76
2022/04/03 08:37:37;;;;;;;8.73;8.43;;;;;;;9.29;50.03;92019.81;5011209;28;20187;-76
2022/04/03 08:40:06;;;;;;;8.80;8.50;;;;;;;8.43;49.95;92007.22;5008162;28;20239;-74
2022/04/03 08:42:33;;;;;;;8.67;8.40;;;;;;;8.92;51.61;92020.59;5009085;28;20192;-75
2022/04/03 08:44:59;;;;;;;9.07;8.77;;;;;;;8.82;51.70;92040.81;5009653;28;20226;-74
2022/04/03 08:47:26;;;;;;;9.03;8.63;;;;;;;8.52;51.92;92046.38;5011336;28;20195;-74
2022/04/03 08:49:56;;;;;;;8.60;8.30;;;;;;;8.59;52.02;92031.22;5008655;28;20231;-75
2022/04/03 08:52:22;;;;;;;8.37;8.17;;;;;;;8.54;53.32;92029.47;5010451;28;20176;-73
2022/04/03 08:54:48;;;;;;;8.17;7.87;;;;;;;8.39;50.13;92037.44;5010721;28;20231;-74
2022/04/03 08:57:14;;;;;;;8.80;8.50;;;;;;;9.03;51.84;92032.41;5010958;28;20197;-76
2022/04/03 08:59:40;;;;;;;8.80;8.50;;;;;;;9.42;49.97;92001.59;5010599;28;20250;-76
2022/04/03 09:02:05;;;;;;;7.40;7.20;;;;;;;9.89;48.73;92012.78;5010634;28;20209;-76
2022/04/03 09:04:31;;;;;;;8.33;8.07;;;;;;;9.77;48.15;92058.31;5010430;28;20230;-74
2022/04/03 09:06:59;;;;;;;8.27;7.97;;;;;;;9.74;47.14;92048.47;5010848;28;20472;-76
2022/04/03 09:09:26;;;;;;;8.43;8.17;;;;;;;9.64;48.63;92053.09;5010647;28;20231;-74
2022/04/03 09:12:15;;;;;;;9.13;8.83;;;;;;;9.84;46.62;92057.97;5009638;28;20725;-76
2022/04/03 09:14:53;;;;;;;8.17;7.87;;;;;;;9.71;46.73;92064.69;5009248;28;20270;-76
2022/04/03 09:17:37;;;;;;;9.63;9.33;;;;;;;9.76;46.44;92040.38;5010489;28;20184;-77
2022/04/03 09:20:08;;;;;;;8.57;8.27;;;;;;;10.51;47.73;92046.06;4990383;28;20234;-75
2022/04/03 09:22:38;;;;;;;8.00;7.77;;;;;;;10.15;47.52;92037.38;4991309;28;20196;-77
2022/04/03 09:25:04;;;;;;;8.43;8.13;;;;;;;10.49;44.82;92048.94;5022348;28;20219;-77
2022/04/03 09:27:48;;;;;;;7.87;7.67;;;;;;;10.10;45.88;92056.47;5011379;28;20195;-75
2022/04/03 09:30:14;;;;;;;8.67;8.27;;;;;;;9.58;46.20;92031.56;5010479;28;20223;-80
2022/04/03 09:32:50;;;;;;;9.10;8.80;;;;;;;9.49;44.17;92029.91;5011138;28;20716;-76
2022/04/03 09:35:17;;;;;;;8.23;7.93;;;;;;;9.99;45.48;92062.94;5010050;28;20234;-75
2022/04/03 09:38:16;;;;;;;8.33;8.03;;;;;;;9.54;44.54;92063.69;5011061;28;20251;-78
2022/04/03 09:40:47;;;;;;;8.07;7.87;;;;;;;9.89;44.00;92068.31;5007976;28;20227;-79
2022/04/03 09:43:38;;;;;;;9.33;9.03;;;;;;;9.48;45.08;92057.78;5010039;28;20234;-77
2022/04/03 09:46:11;;;;;;;9.60;9.20;;;;;;;10.23;45.14;92055.72;5009797;28;20180;-76
2022/04/03 09:48:39;;;;;;;8.17;7.97;;;;;;;10.76;43.42;92084.72;5010499;28;20231;-78
2022/04/03 09:51:07;;;;;;;8.60;8.13;;;;;;;10.47;43.69;92066.75;5010557;28;20902;-76
2022/04/03 09:53:41;;;;;;;8.63;8.33;;;;;;;10.73;42.29;92067.00;5009399;28;20251;-79
2022/04/03 09:56:08;;;;;;;8.77;8.47;;;;;;;11.44;43.98;92079.34;5010360;28;20218;-79
2022/04/03 09:58:58;;;;;;;7.97;7.73;;;;;;;10.19;40.09;92096.50;5009049;28;20235;-77
2022/04/03 10:01:28;;;;;;;7.73;7.53;;;;;;;10.75;41.03;92083.16;5009053;28;20207;-77
2022/04/03 10:03:54;;;;;;;8.33;8.00;;;;;;;10.66;42.88;92090.91;5009303;28;20231;-78
2022/04/03 10:06:21;;;;;;;8.07;7.77;;;;;;;10.64;43.36;92106.09;5010471;28;20195;-79
2022/04/03 10:08:48;;;;;;;7.40;7.20;;;;;;;10.59;43.80;92093.13;5010111;28;20217;-78
2022/04/03 10:11:15;;;;;;;9.27;8.97;;;;;;;10.30;42.15;92091.88;5009166;28;20243;-78
2022/04/03 10:13:42;;;;;;;9.10;8.80;;;;;;;10.37;42.86;92095.63;5009274;28;20239;-79
2022/04/03 10:16:08;;;;;;;8.40;8.10;;;;;;;10.24;42.36;92093.78;5005213;28;20242;-80
2022/04/03 10:18:34;;;;;;;9.47;9.07;;;;;;;9.65;45.05;92080.69;5005646;28;20230;-78
2022/04/03 10:21:00;;;;;;;8.77;8.47;;;;;;;10.41;42.80;92093.22;5008306;28;20215;-78
2022/04/03 10:23:27;;;;;;;8.53;8.23;;;;;;;10.57;41.08;92097.88;5007940;28;20235;-78
2022/04/03 10:25:56;;;;;;;9.63;9.13;;;;;;;9.93;41.07;92082.31;5008712;28;20227;-79
2022/04/03 10:28:23;;;;;;;8.47;8.17;;;;;;;10.67;40.56;92089.84;5008593;28;20235;-79
2022/04/03 10:30:59;;;;;;;8.90;8.43;;;;;;;10.68;41.40;92093.22;5005395;28;20287;-78
2022/04/03 10:33:25;;;;;;;9.13;8.53;;;;;;;10.42;41.02;92095.56;5007347;28;20307;-78
2022/04/03 10:36:12;;;;;;;9.20;8.80;;;;;;;10.66;45.35;92096.13;5005926;28;21976;-79
2022/04/03 10:38:42;;;;;;;8.30;8.00;;;;;;;10.05;45.93;92061.00;5006825;28;20234;-79
2022/04/03 10:41:25;;;;;;;9.00;8.70;;;;;;;10.07;43.37;92088.34;5007399;28;20210;-79
2022/04/03 10:44:10;;;;;;;9.10;8.70;;;;;;;10.42;45.58;92069.47;5006922;28;20250;-78
2022/04/03 10:47:04;;;;;;;9.50;8.80;;;;;;;11.01;46.31;92107.69;5006348;28;21145;-79
2022/04/03 10:49:30;;;;;;;8.53;8.13;;;;;;;10.15;43.64;92085.09;5008338;28;20265;-79
2022/04/03 10:52:01;;;;;;;9.43;9.03;;;;;;;10.33;41.40;92097.28;5008827;28;20187;-79
2022/04/03 10:54:31;;;;;;;8.33;7.93;;;;;;;10.04;41.45;92081.06;5008682;28;20224;-79
2022/04/03 10:57:32;;;;;;;9.30;9.00;;;;;;;10.07;47.16;92105.81;5009049;28;20239;-79
2022/04/03 11:00:13;;;;;;;8.33;8.03;;;;;;;9.84;46.23;92117.91;4989167;28;20232;-81
2022/04/03 11:02:43;;;;;;;7.80;7.60;;;;;;;9.63;50.87;92114.09;4988840;28;20188;-78
2022/04/03 11:05:32;;;;;;;9.63;9.23;;;;;;;9.20;54.10;92134.25;5011417;28;20794;-75
2022/04/03 11:08:00;;;;;;;9.83;9.43;;;;;;;8.82;53.78;92131.88;5003906;28;20191;-88
2022/04/03 11:10:54;;;;;;;9.70;9.30;;;;;;;8.45;55.56;92132.56;5013038;28;20198;-75
2022/04/03 11:13:29;;;;;;;9.67;9.37;;;;;;;8.65;56.74;92128.97;5012363;28;20270;-78
2022/04/03 11:16:03;;;;;;;8.77;8.37;;;;;;;8.12;59.23;92115.97;5013476;28;20241;-79
2022/04/03 11:18:34;;;;;;;9.23;8.57;;;;;;;7.86;60.34;92116.50;5028379;28;20298;-78
2022/04/03 11:21:12;;;;;;;9.57;8.87;;;;;;;7.59;61.15;92113.59;5012936;28;20277;-77
2022/04/03 11:23:44;;;;;;;8.17;7.87;;;;;;;7.93;62.49;92122.13;5011131;28;20233;-78
2022/04/03 11:26:10;;;;;;;8.10;7.83;;;;;;;7.92;62.73;92121.34;5014172;28;20218;-78
2022/04/03 11:28:36;;;;;;;7.97;7.67;;;;;;;8.22;62.95;92128.09;5012455;28;20227;-78
2022/04/03 11:31:04;;;;;;;9.33;8.83;;;;;;;8.49;63.02;92151.00;5012044;28;20203;-76
2022/04/03 11:33:30;;;;;;;9.10;8.80;;;;;;;8.26;62.21;92136.16;5003688;28;20231;-78
2022/04/03 11:36:08;;;;;;;8.53;8.23;;;;;;;8.58;63.95;92154.53;4993093;28;20262;-78
2022/04/03 11:38:39;;;;;;;9.37;8.83;;;;;;;8.42;64.81;92143.50;5000635;28;20230;-83
2022/04/03 11:41:06;;;;;;;9.13;8.60;;;;;;;8.13;69.05;92150.53;5012970;28;20268;-80
2022/04/03 11:43:33;;;;;;;8.43;8.03;;;;;;;8.69;68.59;92150.78;5012562;28;20231;-80